Time;durP1;ratioP1;P1;durP2;ratioP2;P2;SDS_P1;SDS_P2;PMS_P1;PMS_P2;Temp;Humidity;BMP_temperature;BMP_pressure;BME280_temperature;BME280_humidity;BME280_pressure;Samples;Min_cycle;Max_cycle;Signal;HPM_P1;HPM_P2
2023/03/05 00:01:08;;;;;;;;;;;6.40;79.90;;;;;;4977708;28;81978;-37
2023/03/05 00:03:34;;;;;;;;;;;6.40;79.90;;;;;;4974042;28;83909;-36
2023/03/05 00:05:59;;;;;;;;;;;6.40;79.80;;;;;;4977799;28;82846;-36
2023/03/05 00:08:25;;;;;;;;;;;6.40;79.80;;;;;;4976398;28;82147;-37
2023/03/05 00:10:54;;;;;;;;;;;6.40;79.90;;;;;;4978480;28;84491;-37
2023/03/05 00:13:20;;;;;;;;;;;6.40;79.90;;;;;;4977993;28;82127;-37
2023/03/05 00:15:45;;;;;;;;;;;6.40;79.90;;;;;;4975223;28;84070;-37
2023/03/05 00:18:11;;;;;;;;;;;6.40;79.90;;;;;;4976820;28;84724;-37
2023/03/05 00:20:36;;;;;;;;;;;6.30;79.80;;;;;;4977311;28;81809;-37
2023/03/05 00:23:02;;;;;;;;;;;6.30;79.90;;;;;;4974779;28;83241;-37
2023/03/05 00:25:27;;;;;;;;;;;6.30;79.90;;;;;;4978182;28;83051;-37
2023/03/05 00:27:52;;;;;;;;;;;6.30;79.90;;;;;;4974384;28;83049;-37
2023/03/05 00:30:18;;;;;;;;;;;6.30;79.90;;;;;;4977127;28;83442;-36
2023/03/05 00:32:43;;;;;;;;;;;6.30;79.90;;;;;;4978501;28;85222;-37
2023/03/05 00:35:09;;;;;;;;;;;6.30;79.90;;;;;;4975387;28;84496;-37
2023/03/05 00:37:35;;;;;;;;;;;6.30;79.90;;;;;;4977315;28;84187;-37
2023/03/05 00:40:00;;;;;;;;;;;6.30;79.90;;;;;;4975349;28;82007;-37
2023/03/05 00:42:26;;;;;;;;;;;6.30;79.90;;;;;;4976201;28;84256;-37
2023/03/05 00:44:51;;;;;;;;;;;6.30;79.80;;;;;;4976701;28;84390;-37
2023/03/05 00:47:17;;;;;;;;;;;6.30;79.90;;;;;;4975216;28;82085;-37
2023/03/05 00:49:43;;;;;;;;;;;6.30;79.90;;;;;;4977712;28;84520;-36
2023/03/05 00:52:08;;;;;;;;;;;6.30;79.90;;;;;;4974137;28;85309;-37
2023/03/05 00:54:34;;;;;;;;;;;6.30;79.90;;;;;;4977824;28;82264;-37
2023/03/05 00:56:59;;;;;;;;;;;6.30;79.90;;;;;;4976078;28;84272;-37
2023/03/05 00:59:25;;;;;;;;;;;6.30;79.90;;;;;;4974624;28;82067;-37
2023/03/05 01:01:50;;;;;;;;;;;6.30;79.90;;;;;;4977451;28;83966;-38
2023/03/05 01:04:16;;;;;;;;;;;6.30;79.90;;;;;;4974611;28;84411;-37
2023/03/05 01:06:43;;;;;;;;;;;6.30;79.90;;;;;;4976027;28;82112;-37
2023/03/05 01:09:09;;;;;;;;;;;6.30;79.80;;;;;;4977099;28;84090;-37
2023/03/05 01:11:34;;;;;;;;;;;6.30;79.90;;;;;;4973998;28;84556;-37
2023/03/05 01:14:00;;;;;;;;;;;6.30;79.90;;;;;;4977048;28;82161;-37
2023/03/05 01:16:25;;;;;;;;;;;6.30;79.90;;;;;;4977118;28;84225;-37
2023/03/05 01:18:51;;;;;;;;;;;6.30;79.90;;;;;;4975615;28;82086;-37
2023/03/05 01:21:16;;;;;;;;;;;6.30;79.90;;;;;;4976495;28;82351;-37
2023/03/05 01:23:42;;;;;;;;;;;6.30;79.90;;;;;;4973917;28;84857;-37
2023/03/05 01:26:08;;;;;;;;;;;6.30;79.90;;;;;;4977007;28;81974;-37
2023/03/05 01:28:34;;;;;;;;;;;6.30;79.90;;;;;;4973499;28;83971;-37
2023/03/05 01:31:00;;;;;;;;;;;6.30;79.80;;;;;;4975794;28;84457;-37
2023/03/05 01:33:25;;;;;;;;;;;6.30;79.80;;;;;;4975016;28;81321;-37
2023/03/05 01:35:51;;;;;;;;;;;6.30;79.90;;;;;;4977056;28;83435;-37
2023/03/05 01:38:17;;;;;;;;;;;6.30;79.90;;;;;;4976692;28;84259;-37
2023/03/05 01:40:43;;;;;;;;;;;6.30;79.80;;;;;;4975311;28;83842;-37
2023/03/05 01:43:11;;;;;;;;;;;6.30;79.80;;;;;;4975672;28;84370;-36
2023/03/05 01:45:37;;;;;;;;;;;6.30;79.90;;;;;;4977647;28;82681;-36
2023/03/05 01:48:03;;;;;;;;;;;6.30;79.90;;;;;;4980160;28;83942;-37
2023/03/05 01:50:28;;;;;;;;;;;6.20;79.80;;;;;;4978300;28;82876;-37
2023/03/05 01:52:59;;;;;;;;;;;6.30;79.80;;;;;;4978646;28;82121;-37
2023/03/05 01:55:26;;;;;;;;;;;6.30;79.80;;;;;;4980391;28;83813;-37
2023/03/05 01:57:58;;;;;;;;;;;6.30;79.80;;;;;;4983532;28;82573;-37
2023/03/05 02:00:29;;;;;;;;;;;6.30;79.80;;;;;;4979190;28;82189;-37
2023/03/05 02:02:56;;;;;;;;;;;6.30;79.80;;;;;;4976723;28;84472;-37
2023/03/05 02:05:26;;;;;;;;;;;6.30;79.80;;;;;;4978370;28;83067;-36
2023/03/05 02:07:55;;;;;;;;;;;6.30;79.80;;;;;;4979202;28;84830;-37
2023/03/05 02:10:21;;;;;;;;;;;6.20;79.80;;;;;;4976771;28;84449;-37
2023/03/05 02:12:48;;;;;;;;;;;6.30;79.80;;;;;;4979765;28;82067;-36
2023/03/05 02:15:14;;;;;;;;;;;6.30;79.70;;;;;;4978263;28;83897;-37
2023/03/05 02:17:39;;;;;;;;;;;6.30;79.80;;;;;;4977500;28;84683;-37
2023/03/05 02:20:24;;;;;;;;;;;6.30;79.70;;;;;;4982347;28;82057;-37
2023/03/05 02:22:50;;;;;;;;;;;6.30;79.80;;;;;;4979131;28;83814;-37
2023/03/05 02:25:18;;;;;;;;;;;6.30;79.80;;;;;;4976911;28;82173;-36
2023/03/05 02:27:49;;;;;;;;;;;6.20;79.70;;;;;;4979185;28;83970;-37
2023/03/05 02:30:14;;;;;;;;;;;6.30;79.80;;;;;;4977934;28;85466;-37
2023/03/05 02:32:40;;;;;;;;;;;6.20;79.70;;;;;;4976771;28;82046;-37
2023/03/05 02:35:05;;;;;;;;;;;6.30;79.80;;;;;;4979805;28;83916;-37
2023/03/05 02:37:31;;;;;;;;;;;6.20;79.80;;;;;;4976815;28;84730;-37
2023/03/05 02:39:56;;;;;;;;;;;6.20;79.80;;;;;;4977996;28;82112;-37
2023/03/05 02:42:22;;;;;;;;;;;6.20;79.70;;;;;;4981217;28;83863;-37
2023/03/05 02:44:47;;;;;;;;;;;6.30;79.70;;;;;;4976497;28;82082;-36
2023/03/05 02:47:13;;;;;;;;;;;6.20;79.70;;;;;;4979641;28;82752;-37
2023/03/05 02:49:38;;;;;;;;;;;6.20;79.70;;;;;;4976667;28;84797;-36
2023/03/05 02:52:04;;;;;;;;;;;6.30;79.80;;;;;;4977905;28;82128;-36
2023/03/05 02:54:29;;;;;;;;;;;6.30;79.70;;;;;;4977210;28;83401;-36
2023/03/05 02:56:55;;;;;;;;;;;6.20;79.70;;;;;;4979796;28;84478;-37
2023/03/05 02:59:20;;;;;;;;;;;6.20;79.70;;;;;;4976426;28;82416;-37
2023/03/05 03:01:46;;;;;;;;;;;6.20;79.70;;;;;;4975902;28;83597;-37
2023/03/05 03:04:11;;;;;;;;;;;6.20;79.70;;;;;;4978104;28;84478;-37
2023/03/05 03:06:37;;;;;;;;;;;6.20;79.80;;;;;;4977191;28;82467;-38
2023/03/05 03:09:02;;;;;;;;;;;6.20;79.70;;;;;;4979095;28;83329;-37
2023/03/05 03:11:28;;;;;;;;;;;6.20;79.70;;;;;;4976685;28;81408;-37
2023/03/05 03:13:53;;;;;;;;;;;6.20;79.70;;;;;;4978148;28;82614;-37
2023/03/05 03:16:19;;;;;;;;;;;6.20;79.70;;;;;;4977283;28;84936;-37
2023/03/05 03:18:46;;;;;;;;;;;6.20;79.80;;;;;;4975907;28;83152;-37
2023/03/05 03:21:19;;;;;;;;;;;6.20;79.80;;;;;;4978436;28;84829;-37
2023/03/05 03:23:44;;;;;;;;;;;6.20;79.80;;;;;;4976852;28;84590;-37
2023/03/05 03:26:10;;;;;;;;;;;6.20;79.80;;;;;;4979645;28;82133;-37
2023/03/05 03:28:35;;;;;;;;;;;6.20;79.70;;;;;;4974844;28;84057;-37
2023/03/05 03:31:01;;;;;;;;;;;6.20;79.80;;;;;;4978807;28;82266;-37
2023/03/05 03:33:26;;;;;;;;;;;6.20;79.70;;;;;;4976151;28;83948;-37
2023/03/05 03:35:52;;;;;;;;;;;6.20;79.80;;;;;;4977776;28;83698;-37
2023/03/05 03:38:17;;;;;;;;;;;6.20;79.70;;;;;;4977570;28;81986;-37
2023/03/05 03:40:43;;;;;;;;;;;6.20;79.70;;;;;;4975796;28;84290;-37
2023/03/05 03:43:08;;;;;;;;;;;6.20;79.80;;;;;;4977874;28;84411;-37
2023/03/05 03:45:34;;;;;;;;;;;6.20;79.80;;;;;;4975824;28;82106;-37
2023/03/05 03:47:59;;;;;;;;;;;6.20;79.80;;;;;;4979527;28;83679;-36
2023/03/05 03:50:25;;;;;;;;;;;6.20;79.80;;;;;;4977631;28;82118;-37
2023/03/05 03:52:51;;;;;;;;;;;6.20;79.80;;;;;;4975613;28;83869;-37
2023/03/05 03:55:16;;;;;;;;;;;6.20;79.80;;;;;;4978652;28;83530;-36
2023/03/05 03:57:42;;;;;;;;;;;6.20;79.70;;;;;;5007721;28;82194;-37
2023/03/05 04:00:09;;;;;;;;;;;6.20;79.80;;;;;;4977145;28;83871;-37
2023/03/05 04:02:35;;;;;;;;;;;6.20;79.80;;;;;;4977156;28;84519;-37
2023/03/05 04:05:01;;;;;;;;;;;6.10;79.70;;;;;;4975003;28;82087;-37
2023/03/05 04:07:27;;;;;;;;;;;6.10;79.80;;;;;;4978878;28;83721;-36
2023/03/05 04:09:52;;;;;;;;;;;6.20;79.70;;;;;;4976281;28;82140;-37
2023/03/05 04:12:18;;;;;;;;;;;6.10;80.30;;;;;;4976465;28;83840;-36
2023/03/05 04:14:47;;;;;;;;;;;6.10;79.70;;;;;;4977549;28;84313;-37
2023/03/05 04:17:13;;;;;;;;;;;6.10;79.70;;;;;;4975164;28;82047;-36
2023/03/05 04:19:38;;;;;;;;;;;6.10;79.60;;;;;;4977285;28;83745;-37
2023/03/05 04:22:04;;;;;;;;;;;6.10;79.60;;;;;;4975721;28;83612;-36
2023/03/05 04:24:30;;;;;;;;;;;6.20;79.60;;;;;;4975947;28;81238;-37
2023/03/05 04:26:55;;;;;;;;;;;6.10;79.60;;;;;;4978209;28;81953;-37
2023/03/05 04:29:21;;;;;;;;;;;6.10;79.60;;;;;;4977561;28;84794;-37
2023/03/05 04:31:46;;;;;;;;;;;6.10;79.70;;;;;;4976360;28;83745;-37
2023/03/05 04:34:12;;;;;;;;;;;6.10;79.70;;;;;;4976242;28;84657;-37
2023/03/05 04:36:37;;;;;;;;;;;6.10;79.70;;;;;;4975640;28;82090;-37
2023/03/05 04:39:03;;;;;;;;;;;6.10;79.60;;;;;;4977635;28;84023;-37
2023/03/05 04:41:29;;;;;;;;;;;6.10;79.60;;;;;;4974790;28;84371;-37
2023/03/05 04:43:54;;;;;;;;;;;6.10;79.60;;;;;;4976444;28;82124;-37
2023/03/05 04:46:20;;;;;;;;;;;6.10;79.60;;;;;;4976517;28;83837;-37
2023/03/05 04:48:45;;;;;;;;;;;6.10;79.60;;;;;;4975367;28;83985;-37
2023/03/05 04:51:11;;;;;;;;;;;6.10;79.60;;;;;;4980509;28;82156;-37
2023/03/05 04:53:36;;;;;;;;;;;6.10;79.60;;;;;;4974688;28;84586;-37
2023/03/05 04:56:02;;;;;;;;;;;6.10;79.60;;;;;;4975667;28;83059;-36
2023/03/05 04:58:27;;;;;;;;;;;6.00;79.50;;;;;;4976269;28;85459;-36
2023/03/05 05:00:53;;;;;;;;;;;6.10;79.50;;;;;;4974404;28;84439;-37
2023/03/05 05:03:19;;;;;;;;;;;6.10;79.40;;;;;;4976997;28;82999;-36
2023/03/05 05:05:44;;;;;;;;;;;6.10;79.40;;;;;;4974791;28;83715;-36
2023/03/05 05:08:10;;;;;;;;;;;6.10;79.40;;;;;;4975872;28;84910;-37
2023/03/05 05:10:38;;;;;;;;;;;6.10;79.40;;;;;;4976243;28;82051;-37
2023/03/05 05:13:04;;;;;;;;;;;6.10;79.40;;;;;;4977179;28;83922;-37
2023/03/05 05:15:31;;;;;;;;;;;6.10;79.50;;;;;;4977182;28;82170;-36
2023/03/05 05:17:56;;;;;;;;;;;6.10;79.30;;;;;;4975333;28;83731;-36
2023/03/05 05:20:22;;;;;;;;;;;6.10;79.30;;;;;;4974065;28;85168;-37
2023/03/05 05:22:47;;;;;;;;;;;6.10;79.30;;;;;;4975369;28;82229;-38
2023/03/05 05:25:13;;;;;;;;;;;6.10;79.30;;;;;;4974191;28;83891;-37
2023/03/05 05:27:38;;;;;;;;;;;6.10;79.30;;;;;;4976403;28;84886;-37
2023/03/05 05:30:04;;;;;;;;;;;6.10;79.30;;;;;;4975049;28;82245;-37
2023/03/05 05:32:30;;;;;;;;;;;6.00;79.30;;;;;;4975072;28;83916;-37
2023/03/05 05:34:56;;;;;;;;;;;6.00;79.20;;;;;;4979097;28;84713;-36
2023/03/05 05:37:22;;;;;;;;;;;6.00;79.30;;;;;;4974298;28;82327;-37
2023/03/05 05:39:49;;;;;;;;;;;6.00;79.30;;;;;;4976063;28;84639;-37
2023/03/05 05:42:18;;;;;;;;;;;6.00;79.30;;;;;;4975276;28;81982;-37
2023/03/05 05:44:44;;;;;;;;;;;6.00;79.30;;;;;;4973247;28;83359;-37
2023/03/05 05:47:10;;;;;;;;;;;6.00;79.30;;;;;;4976664;28;83284;-37
2023/03/05 05:49:35;;;;;;;;;;;6.00;79.30;;;;;;4974294;28;82175;-37
2023/03/05 05:52:01;;;;;;;;;;;6.00;79.30;;;;;;4975517;28;83855;-36
2023/03/05 05:54:26;;;;;;;;;;;6.00;79.30;;;;;;4976005;28;82800;-37
2023/03/05 05:56:52;;;;;;;;;;;6.00;79.40;;;;;;4976471;28;82022;-37
2023/03/05 05:59:17;;;;;;;;;;;6.00;79.30;;;;;;4976754;28;83969;-36
2023/03/05 06:01:43;;;;;;;;;;;6.00;79.30;;;;;;4974979;28;81429;-37
2023/03/05 06:04:08;;;;;;;;;;;6.00;79.30;;;;;;4974915;28;83472;-37
2023/03/05 06:06:33;;;;;;;;;;;6.00;79.30;;;;;;4974414;28;84555;-36
2023/03/05 06:08:59;;;;;;;;;;;6.00;79.30;;;;;;4973052;28;83041;-37
2023/03/05 06:11:25;;;;;;;;;;;6.00;79.20;;;;;;4973517;28;84918;-36
2023/03/05 06:13:50;;;;;;;;;;;6.00;79.20;;;;;;4975660;28;84131;-36
2023/03/05 06:16:17;;;;;;;;;;;6.00;79.30;;;;;;4977597;28;82253;-37
2023/03/05 06:18:43;;;;;;;;;;;6.00;79.30;;;;;;4973760;28;84395;-37
2023/03/05 06:21:14;;;;;;;;;;;6.00;79.30;;;;;;4976439;28;82019;-37
2023/03/05 06:23:40;;;;;;;;;;;6.00;79.30;;;;;;4974477;28;82707;-36
2023/03/05 06:26:07;;;;;;;;;;;6.00;79.20;;;;;;4974850;28;83130;-36
2023/03/05 06:28:32;;;;;;;;;;;6.00;79.30;;;;;;4976418;28;81982;-36
2023/03/05 06:31:05;;;;;;;;;;;6.00;79.20;;;;;;4975689;28;83722;-36
2023/03/05 06:33:31;;;;;;;;;;;6.00;79.30;;;;;;4977297;28;86751;-36
2023/03/05 06:35:57;;;;;;;;;;;6.00;79.20;;;;;;4978940;28;82065;-36
2023/03/05 06:38:22;;;;;;;;;;;6.00;79.20;;;;;;4979104;28;82964;-36
2023/03/05 06:40:48;;;;;;;;;;;6.00;79.10;;;;;;4979188;28;82451;-37
2023/03/05 06:43:14;;;;;;;;;;;6.00;79.20;;;;;;4977132;28;83933;-36
2023/03/05 06:45:39;;;;;;;;;;;6.00;79.20;;;;;;4977529;28;84103;-36
2023/03/05 06:48:05;;;;;;;;;;;6.00;79.20;;;;;;4979035;28;82147;-36
2023/03/05 06:50:33;;;;;;;;;;;6.00;79.20;;;;;;4976788;28;83919;-36
2023/03/05 06:52:58;;;;;;;;;;;6.00;79.20;;;;;;4978598;28;84434;-36
2023/03/05 06:55:24;;;;;;;;;;;6.00;79.00;;;;;;4977407;28;82016;-36
2023/03/05 06:57:49;;;;;;;;;;;6.00;79.20;;;;;;4976477;28;83844;-36
2023/03/05 07:00:15;;;;;;;;;;;6.00;79.10;;;;;;4981455;28;83635;-37
2023/03/05 07:02:40;;;;;;;;;;;6.00;79.10;;;;;;4976139;28;82618;-36
2023/03/05 07:05:06;;;;;;;;;;;6.00;79.00;;;;;;4978125;28;84405;-36
2023/03/05 07:07:32;;;;;;;;;;;6.00;79.00;;;;;;4977537;28;82205;-36
2023/03/05 07:09:58;;;;;;;;;;;6.00;79.00;;;;;;4976840;28;82558;-36
2023/03/05 07:12:23;;;;;;;;;;;6.00;78.90;;;;;;4978794;28;83692;-36
2023/03/05 07:14:49;;;;;;;;;;;6.00;78.80;;;;;;4974857;28;81567;-36
2023/03/05 07:17:14;;;;;;;;;;;6.00;78.80;;;;;;4977972;28;82983;-36
2023/03/05 07:19:40;;;;;;;;;;;6.00;78.80;;;;;;4977220;28;84413;-36
2023/03/05 07:22:06;;;;;;;;;;;6.00;78.90;;;;;;4978168;28;83483;-39
2023/03/05 07:24:32;;;;;;;;;;;6.00;78.80;;;;;;4978526;28;84537;-36
2023/03/05 07:26:57;;;;;;;;;;;6.00;78.90;;;;;;4975702;28;82243;-37
2023/03/05 07:29:23;;;;;;;;;;;6.00;78.70;;;;;;4977580;28;83701;-36
2023/03/05 07:31:49;;;;;;;;;;;6.10;78.70;;;;;;4977593;28;83940;-36
2023/03/05 07:34:14;;;;;;;;;;;6.10;78.70;;;;;;4975822;28;82134;-36
2023/03/05 07:36:41;;;;;;;;;;;6.00;78.70;;;;;;4975651;28;82421;-36
2023/03/05 07:39:06;;;;;;;;;;;6.10;78.60;;;;;;4978505;28;83580;-36
2023/03/05 07:41:32;;;;;;;;;;;6.00;78.70;;;;;;4976797;28;81984;-36
2023/03/05 07:43:58;;;;;;;;;;;6.00;78.60;;;;;;4978692;28;84035;-36
2023/03/05 07:46:25;;;;;;;;;;;6.10;78.60;;;;;;4977629;28;83048;-37
2023/03/05 07:48:51;;;;;;;;;;;6.10;78.60;;;;;;4975441;28;84006;-36
2023/03/05 07:51:17;;;;;;;;;;;6.10;78.60;;;;;;4977602;28;83015;-36
2023/03/05 07:53:44;;;;;;;;;;;6.10;78.60;;;;;;4976991;28;82161;-36
2023/03/05 07:56:09;;;;;;;;;;;6.10;78.60;;;;;;4975916;28;84134;-36
2023/03/05 07:58:35;;;;;;;;;;;6.10;78.60;;;;;;4978202;28;84491;-36
2023/03/05 08:01:01;;;;;;;;;;;6.10;78.70;;;;;;4977846;28;82106;-36
2023/03/05 08:03:26;;;;;;;;;;;6.10;78.70;;;;;;4979048;28;84086;-36
2023/03/05 08:05:52;;;;;;;;;;;6.10;78.60;;;;;;4976584;28;81998;-36
2023/03/05 08:08:17;;;;;;;;;;;6.10;78.70;;;;;;4977687;28;82954;-36
2023/03/05 08:10:43;;;;;;;;;;;6.00;78.70;;;;;;4974119;28;85448;-36
2023/03/05 08:13:09;;;;;;;;;;;6.10;78.70;;;;;;4977774;28;82033;-37
2023/03/05 08:15:35;;;;;;;;;;;6.10;78.60;;;;;;4976376;28;83720;-36
2023/03/05 08:18:01;;;;;;;;;;;6.10;78.70;;;;;;4975517;28;84458;-36
2023/03/05 08:20:26;;;;;;;;;;;6.10;78.80;;;;;;4977671;28;81991;-36
2023/03/05 08:22:52;;;;;;;;;;;6.00;78.80;;;;;;4974522;28;83107;-36
2023/03/05 08:25:17;;;;;;;;;;;6.00;78.80;;;;;;4978544;28;84796;-36
2023/03/05 08:27:44;;;;;;;;;;;6.00;78.70;;;;;;4977017;28;81829;-37
2023/03/05 08:30:11;;;;;;;;;;;6.00;78.60;;;;;;4975171;28;84101;-36
2023/03/05 08:32:36;;;;;;;;;;;6.00;78.70;;;;;;4977761;28;81857;-37
2023/03/05 08:35:03;;;;;;;;;;;6.00;78.80;;;;;;4974684;28;83872;-36
2023/03/05 08:37:29;;;;;;;;;;;6.10;78.80;;;;;;4976458;28;83744;-36
2023/03/05 08:39:55;;;;;;;;;;;6.10;78.70;;;;;;4976440;28;82039;-36
2023/03/05 08:42:21;;;;;;;;;;;6.00;78.70;;;;;;4974646;28;83870;-36
2023/03/05 08:44:46;;;;;;;;;;;6.00;78.70;;;;;;4977415;28;84736;-36
2023/03/05 08:47:12;;;;;;;;;;;6.10;78.80;;;;;;4978281;28;82136;-36
2023/03/05 08:49:38;;;;;;;;;;;6.00;78.70;;;;;;4975906;28;83385;-36
2023/03/05 08:52:03;;;;;;;;;;;6.00;78.70;;;;;;4977031;28;81157;-36
2023/03/05 08:54:29;;;;;;;;;;;6.00;78.70;;;;;;4974424;28;84126;-36
2023/03/05 08:56:54;;;;;;;;;;;6.00;78.70;;;;;;4974453;28;84726;-36
2023/03/05 08:59:20;;;;;;;;;;;6.00;78.70;;;;;;4976038;28;83070;-36
2023/03/05 09:01:45;;;;;;;;;;;6.10;78.70;;;;;;4975850;28;84908;-36
2023/03/05 09:04:11;;;;;;;;;;;6.00;78.60;;;;;;4974932;28;83010;-36
2023/03/05 09:06:39;;;;;;;;;;;6.10;78.70;;;;;;4977542;28;81964;-36
2023/03/05 09:09:06;;;;;;;;;;;6.10;78.70;;;;;;4977350;28;83729;-36
2023/03/05 09:11:34;;;;;;;;;;;6.10;78.60;;;;;;4975947;28;82133;-36
2023/03/05 09:14:04;;;;;;;;;;;6.10;78.60;;;;;;5008534;28;85367;-36
2023/03/05 09:16:29;;;;;;;;;;;6.10;78.60;;;;;;4974557;28;84881;-36
2023/03/05 09:18:55;;;;;;;;;;;6.10;78.50;;;;;;4976234;28;82119;-36
2023/03/05 09:21:21;;;;;;;;;;;6.20;78.50;;;;;;4975495;28;82641;-36
2023/03/05 09:23:46;;;;;;;;;;;6.10;78.40;;;;;;4974047;28;85371;-36
2023/03/05 09:26:14;;;;;;;;;;;6.10;78.50;;;;;;4977078;28;82166;-37
2023/03/05 09:28:40;;;;;;;;;;;6.10;78.50;;;;;;4974528;28;82936;-36
2023/03/05 09:31:06;;;;;;;;;;;6.20;78.40;;;;;;4978284;28;84290;-36
2023/03/05 09:33:32;;;;;;;;;;;6.20;78.30;;;;;;4976491;28;83135;-36
2023/03/05 09:35:58;;;;;;;;;;;6.20;78.40;;;;;;4973851;28;84334;-36
2023/03/05 09:38:24;;;;;;;;;;;6.20;78.40;;;;;;4973849;28;82113;-36
2023/03/05 09:40:52;;;;;;;;;;;6.20;78.40;;;;;;4976456;28;83234;-36
2023/03/05 09:43:36;;;;;;;;;;;6.10;78.40;;;;;;4975756;28;82801;-36
2023/03/05 09:46:01;;;;;;;;;;;6.20;78.40;;;;;;4973526;28;82067;-37
2023/03/05 09:48:47;;;;;;;;;;;6.20;78.40;;;;;;4975544;28;83867;-36
2023/03/05 09:51:16;;;;;;;;;;;6.20;78.40;;;;;;4975337;28;84261;-35
2023/03/05 09:53:47;;;;;;;;;;;6.20;78.40;;;;;;4976501;28;82665;-36
2023/03/05 09:56:14;;;;;;;;;;;6.20;78.30;;;;;;4975691;28;84940;-36
2023/03/05 09:58:42;;;;;;;;;;;6.30;78.30;;;;;;4975537;28;82070;-36
2023/03/05 10:01:10;;;;;;;;;;;6.20;78.20;;;;;;4974142;28;82037;-36
2023/03/05 10:03:35;;;;;;;;;;;6.20;78.20;;;;;;4973503;28;84568;-36
2023/03/05 10:06:04;;;;;;;;;;;6.30;78.10;;;;;;4979016;28;81315;-36
2023/03/05 10:08:44;;;;;;;;;;;6.30;78.10;;;;;;4979004;28;82146;-36
2023/03/05 10:11:15;;;;;;;;;;;6.30;78.20;;;;;;4978146;28;83270;-37
2023/03/05 10:13:41;;;;;;;;;;;6.30;78.20;;;;;;4979573;28;82944;-36
2023/03/05 10:16:26;;;;;;;;;;;6.20;78.30;;;;;;4979658;28;84385;-36
2023/03/05 10:18:51;;;;;;;;;;;6.20;78.30;;;;;;4979513;28;82158;-36
2023/03/05 10:21:17;;;;;;;;;;;6.30;78.30;;;;;;4976536;28;84317;-36
2023/03/05 10:23:48;;;;;;;;;;;6.30;78.30;;;;;;4978929;28;84665;-36
2023/03/05 10:26:19;;;;;;;;;;;6.30;78.40;;;;;;4979136;28;82107;-36
2023/03/05 10:29:03;;;;;;;;;;;6.30;78.20;;;;;;4976853;28;84187;-36
2023/03/05 10:31:33;;;;;;;;;;;6.30;78.30;;;;;;4976851;28;82205;-36
2023/03/05 10:34:01;;;;;;;;;;;6.30;78.30;;;;;;4977195;28;81992;-35
2023/03/05 10:36:27;;;;;;;;;;;6.20;78.40;;;;;;4980248;28;84136;-35
2023/03/05 10:39:11;;;;;;;;;;;6.20;78.50;;;;;;4978504;28;83579;-35
2023/03/05 10:41:39;;;;;;;;;;;6.20;78.50;;;;;;4979645;28;84955;-36
2023/03/05 10:44:11;;;;;;;;;;;6.20;78.40;;;;;;4979326;28;83513;-36
2023/03/05 10:46:37;;;;;;;;;;;6.30;78.50;;;;;;4977599;28;82113;-35
2023/03/05 10:49:16;;;;;;;;;;;6.30;78.50;;;;;;4977246;28;83734;-36
2023/03/05 10:51:51;;;;;;;;;;;6.30;78.40;;;;;;4977196;28;84713;-35
2023/03/05 10:54:29;;;;;;;;;;;6.30;78.30;;;;;;4980056;28;82106;-36
2023/03/05 10:57:04;;;;;;;;;;;6.30;78.20;;;;;;4978484;28;84141;-35
2023/03/05 10:59:30;;;;;;;;;;;6.20;78.30;;;;;;4978814;28;84247;-36
2023/03/05 11:02:07;;;;;;;;;;;6.30;78.50;;;;;;4978426;28;83534;-35
2023/03/05 11:04:37;;;;;;;;;;;6.20;78.50;;;;;;4977812;28;85660;-35
2023/03/05 11:07:06;;;;;;;;;;;6.30;78.50;;;;;;4976834;28;82245;-36
2023/03/05 11:09:32;;;;;;;;;;;6.30;78.40;;;;;;4977326;28;83871;-36
2023/03/05 11:12:00;;;;;;;;;;;6.40;78.30;;;;;;4978711;28;84406;-36
2023/03/05 11:14:32;;;;;;;;;;;6.30;78.20;;;;;;4976145;28;82170;-36
2023/03/05 11:16:58;;;;;;;;;;;6.40;78.30;;;;;;4977529;28;82404;-36
2023/03/05 11:19:23;;;;;;;;;;;6.30;78.20;;;;;;4978277;28;84551;-36
2023/03/05 11:22:09;;;;;;;;;;;6.30;78.30;;;;;;4978782;28;81395;-36
2023/03/05 11:24:36;;;;;;;;;;;6.40;78.30;;;;;;4968060;28;82990;-35
2023/03/05 11:27:02;;;;;;;;;;;6.40;78.30;;;;;;4975913;28;82052;-35
2023/03/05 11:29:29;;;;;;;;;;;6.40;78.20;;;;;;4977269;28;83915;-36
2023/03/05 11:31:55;;;;;;;;;;;6.40;78.20;;;;;;4974805;28;83464;-36
2023/03/05 11:34:33;;;;;;;;;;;6.40;78.10;;;;;;4978512;28;82336;-36
2023/03/05 11:37:04;;;;;;;;;;;6.40;78.30;;;;;;4977532;28;83908;-36
2023/03/05 11:39:33;;;;;;;;;;;6.40;78.50;;;;;;4975486;28;84222;-35
2023/03/05 11:42:23;;;;;;;;;;;6.40;78.40;;;;;;4976014;28;82116;-36
2023/03/05 11:44:55;;;;;;;;;;;6.40;78.40;;;;;;4978894;28;83900;-36
2023/03/05 11:47:34;;;;;;;;;;;6.40;78.40;;;;;;4976727;28;81455;-35
2023/03/05 11:50:15;;;;;;;;;;;6.30;78.40;;;;;;4977110;28;83490;-36
2023/03/05 11:52:48;;;;;;;;;;;6.30;78.50;;;;;;4975383;28;84353;-36
2023/03/05 11:55:16;;;;;;;;;;;6.40;78.50;;;;;;4975932;28;82965;-36
2023/03/05 11:57:56;;;;;;;;;;;6.40;78.50;;;;;;4978449;28;84686;-36
2023/03/05 12:00:26;;;;;;;;;;;6.30;78.50;;;;;;4977274;28;84791;-36
2023/03/05 12:02:53;;;;;;;;;;;6.40;78.50;;;;;;4975222;28;82571;-36
2023/03/05 12:05:19;;;;;;;;;;;6.40;78.40;;;;;;4976999;28;83856;-36
2023/03/05 12:07:47;;;;;;;;;;;6.40;78.50;;;;;;4977565;28;84623;-36
2023/03/05 12:10:17;;;;;;;;;;;6.40;78.50;;;;;;4977384;28;83778;-35
2023/03/05 12:12:56;;;;;;;;;;;6.40;78.60;;;;;;4975084;28;83552;-36
2023/03/05 12:15:22;;;;;;;;;;;6.50;78.30;;;;;;4974838;28;81855;-36
2023/03/05 12:18:06;;;;;;;;;;;6.40;78.50;;;;;;4978261;28;83915;-36
2023/03/05 12:20:50;;;;;;;;;;;6.40;78.60;;;;;;4976949;28;83538;-35
2023/03/05 12:23:17;;;;;;;;;;;6.40;78.50;;;;;;4975686;28;82184;-36
2023/03/05 12:25:50;;;;;;;;;;;6.40;78.60;;;;;;4978678;28;82257;-35
2023/03/05 12:28:30;;;;;;;;;;;6.40;78.70;;;;;;4976799;28;84583;-36
2023/03/05 12:30:59;;;;;;;;;;;6.40;78.80;;;;;;4975901;28;83167;-35
2023/03/05 12:33:29;;;;;;;;;;;6.30;78.90;;;;;;4975848;28;84736;-36
2023/03/05 12:36:14;;;;;;;;;;;6.30;78.90;;;;;;4977231;28;82677;-36
2023/03/05 12:38:40;;;;;;;;;;;6.30;79.00;;;;;;4976686;28;81364;-36
2023/03/05 12:41:21;;;;;;;;;;;6.40;79.00;;;;;;4975630;28;83445;-36
2023/03/05 12:44:06;;;;;;;;;;;6.30;79.10;;;;;;4974535;28;82240;-36
2023/03/05 12:46:34;;;;;;;;;;;6.30;79.20;;;;;;4974194;28;83949;-36
2023/03/05 12:49:27;;;;;;;;;;;6.30;79.10;;;;;;4977718;28;83309;-36
2023/03/05 12:51:53;;;;;;;;;;;6.40;79.10;;;;;;4978455;28;82035;-36
2023/03/05 12:54:30;;;;;;;;;;;6.40;79.10;;;;;;4974012;28;84463;-35
2023/03/05 12:56:57;;;;;;;;;;;6.40;79.10;;;;;;4976400;28;82065;-36
2023/03/05 12:59:27;;;;;;;;;;;6.40;79.10;;;;;;4976183;28;84127;-36
2023/03/05 13:01:57;;;;;;;;;;;6.40;79.10;;;;;;4974515;28;84844;-35
2023/03/05 13:04:28;;;;;;;;;;;6.30;79.10;;;;;;4977350;28;81441;-35
2023/03/05 13:07:03;;;;;;;;;;;6.30;79.10;;;;;;4974338;28;82302;-36
2023/03/05 13:09:32;;;;;;;;;;;6.30;79.40;;;;;;4975213;28;85090;-36
2023/03/05 13:11:58;;;;;;;;;;;6.30;79.10;;;;;;4976113;28;83123;-36
2023/03/05 13:14:26;;;;;;;;;;;6.30;79.30;;;;;;4977226;28;84589;-36
2023/03/05 13:16:51;;;;;;;;;;;6.40;79.20;;;;;;4977272;28;82080;-36
2023/03/05 13:19:17;;;;;;;;;;;6.40;79.20;;;;;;4973859;28;82147;-35
2023/03/05 13:21:43;;;;;;;;;;;6.30;79.10;;;;;;4976922;28;84463;-36
2023/03/05 13:24:16;;;;;;;;;;;6.40;78.90;;;;;;4974063;28;82103;-35
2023/03/05 13:26:41;;;;;;;;;;;6.30;79.10;;;;;;4976183;28;83675;-36
2023/03/05 13:29:14;;;;;;;;;;;6.30;78.90;;;;;;4975366;28;83549;-36
2023/03/05 13:31:42;;;;;;;;;;;6.40;79.10;;;;;;4974593;28;82118;-36
2023/03/05 13:34:14;;;;;;;;;;;6.40;78.90;;;;;;4976825;28;84156;-35
2023/03/05 13:36:44;;;;;;;;;;;6.40;78.90;;;;;;4975926;28;85148;-36
2023/03/05 13:39:16;;;;;;;;;;;6.40;78.80;;;;;;4977815;28;84696;-36
2023/03/05 13:41:53;;;;;;;;;;;6.40;78.80;;;;;;4980709;28;85092;-36
2023/03/05 13:44:20;;;;;;;;;;;6.50;78.70;;;;;;4980940;28;81839;-36
2023/03/05 13:46:46;;;;;;;;;;;6.50;78.60;;;;;;4977329;28;83828;-36
2023/03/05 13:49:21;;;;;;;;;;;6.50;78.30;;;;;;4979998;28;83640;-36
2023/03/05 13:51:48;;;;;;;;;;;6.50;78.40;;;;;;4978797;28;82064;-36
2023/03/05 13:54:15;;;;;;;;;;;6.50;78.30;;;;;;4978788;28;84066;-37
2023/03/05 13:57:04;;;;;;;;;;;6.50;78.30;;;;;;4979340;28;82922;-36
2023/03/05 13:59:33;;;;;;;;;;;6.60;78.10;;;;;;4979533;28;82050;-36
2023/03/05 14:02:19;;;;;;;;;;;6.60;78.00;;;;;;4978896;28;85477;-37
2023/03/05 14:04:45;;;;;;;;;;;6.60;78.10;;;;;;4978142;28;82046;-37
2023/03/05 14:07:23;;;;;;;;;;;6.70;78.00;;;;;;4978531;28;83113;-36
2023/03/05 14:09:50;;;;;;;;;;;6.60;78.10;;;;;;4976641;28;84317;-36
2023/03/05 14:12:22;;;;;;;;;;;6.70;78.00;;;;;;4980059;28;82003;-36
2023/03/05 14:14:48;;;;;;;;;;;6.70;78.00;;;;;;4978089;28;84209;-36
2023/03/05 14:17:20;;;;;;;;;;;6.70;77.90;;;;;;4978578;28;84319;-36
2023/03/05 14:19:45;;;;;;;;;;;6.80;77.70;;;;;;4979661;28;81351;-36
2023/03/05 14:22:31;;;;;;;;;;;6.80;77.80;;;;;;4979428;28;83351;-36
2023/03/05 14:24:56;;;;;;;;;;;6.70;77.90;;;;;;4977932;28;82133;-36
2023/03/05 14:27:22;;;;;;;;;;;6.70;77.60;;;;;;4977638;28;82900;-37
2023/03/05 14:29:47;;;;;;;;;;;6.70;77.90;;;;;;4975655;28;83094;-37
2023/03/05 14:32:25;;;;;;;;;;;6.60;78.30;;;;;;4977821;28;82555;-35
2023/03/05 14:34:53;;;;;;;;;;;6.50;79.10;;;;;;4976733;28;82389;-36